Tonopah, Nevada
Current Conditions -  °F | °C
As of 1:56 AM on Monday 22 Dec 2014 (Local Time) from KTPH Reporting Station
Clear Clear  
Wind Chill: 39°   Ceiling: Unl
Heat Index: 47°   Visibility: 10mi
Dew Point: 35°   Wind: 25mph
Humidity: 63%   Direction: 320°NW
Pressure: 30.24"   Gusts: 32mph
Location:  38.07°N, 117.23°W
Report Text: KTPH 220956Z AUTO 32022G28KT 10SM CLR 08/02 A3024 RMK AO2 PK WND 32029/0940 SLP209 T00830017
Loading
Personal Weather Stations






























Interactive Weather Map New forecast layout! Learn more

10-Day Weather Forecast

Advertisements
Track Severe Weather on mobile